Sequoia National Park, California
Current Conditions -  °F | °C
As of 8:15 PM on Friday 19 Dec 2014 (Local Time) from KVIS Reporting Station
Few Clouds Few Clouds  
Wind Chill: 52°   Ceiling: Unl
Heat Index: 52°   Visibility: 10mi
Dew Point: 45°   Wind: 3mph
Humidity: 76%   Direction: 90°E
Pressure: 30.21"   Gusts: NA
Location:  36.5932°N, 118.838°W
Report Text: KVIS 200415Z AUTO 09003KT 10SM FEW120 11/07 A3021 RMK AO1
Loading
Personal Weather Stations






























Interactive Weather Map New forecast layout! Learn more

10-Day Weather Forecast

Advertisements
Track Severe Weather on mobile